sensor_id;sensor_type;location;lat;lon;timestamp;temperature;humidity
3790;DHT22;1910;49.042;9.028;2022-08-11T00:01:12;20.60;52.30
3790;DHT22;1910;49.042;9.028;2022-08-11T00:03:53;21.00;53.70
3790;DHT22;1910;49.042;9.028;2022-08-11T00:06:26;20.40;52.70
3790;DHT22;1910;49.042;9.028;2022-08-11T00:08:53;20.40;53.30
3790;DHT22;1910;49.042;9.028;2022-08-11T00:11:21;20.10;53.30
3790;DHT22;1910;49.042;9.028;2022-08-11T00:13:48;20.00;53.70
3790;DHT22;1910;49.042;9.028;2022-08-11T00:16:17;20.00;54.10
3790;DHT22;1910;49.042;9.028;2022-08-11T00:18:46;19.90;54.70
3790;DHT22;1910;49.042;9.028;2022-08-11T00:21:14;21.70;56.50
3790;DHT22;1910;49.042;9.028;2022-08-11T00:23:46;19.80;56.00
3790;DHT22;1910;49.042;9.028;2022-08-11T00:26:15;19.60;56.00
3790;DHT22;1910;49.042;9.028;2022-08-11T00:28:41;19.40;56.60
3790;DHT22;1910;49.042;9.028;2022-08-11T00:31:10;19.20;57.60
3790;DHT22;1910;49.042;9.028;2022-08-11T00:33:44;19.10;58.00
3790;DHT22;1910;49.042;9.028;2022-08-11T00:36:13;19.10;58.70
3790;DHT22;1910;49.042;9.028;2022-08-11T00:38:41;19.20;58.90
3790;DHT22;1910;49.042;9.028;2022-08-11T00:41:19;19.10;58.20
3790;DHT22;1910;49.042;9.028;2022-08-11T00:44:11;19.10;59.00
3790;DHT22;1910;49.042;9.028;2022-08-11T00:53:29;18.60;63.50
3790;DHT22;1910;49.042;9.028;2022-08-11T01:02:05;18.30;66.50
3790;DHT22;1910;49.042;9.028;2022-08-11T01:07:57;18.00;69.80
3790;DHT22;1910;49.042;9.028;2022-08-11T01:25:40;17.70;77.80
3790;DHT22;1910;49.042;9.028;2022-08-11T01:28:36;17.40;78.30
3790;DHT22;1910;49.042;9.028;2022-08-11T01:31:39;17.40;79.60
3790;DHT22;1910;49.042;9.028;2022-08-11T01:46:34;17.20;87.00
3790;DHT22;1910;49.042;9.028;2022-08-11T01:49:20;17.40;86.00
3790;DHT22;1910;49.042;9.028;2022-08-11T02:00:23;17.20;87.90
3790;DHT22;1910;49.042;9.028;2022-08-11T02:06:09;17.10;89.00
3790;DHT22;1910;49.042;9.028;2022-08-11T02:11:32;17.10;90.20
3790;DHT22;1910;49.042;9.028;2022-08-11T02:14:11;17.20;90.70
3790;DHT22;1910;49.042;9.028;2022-08-11T02:16:48;17.30;90.70
3790;DHT22;1910;49.042;9.028;2022-08-11T02:22:39;17.20;89.40
3790;DHT22;1910;49.042;9.028;2022-08-11T02:25:49;17.10;90.00
3790;DHT22;1910;49.042;9.028;2022-08-11T02:31:01;17.10;91.60
3790;DHT22;1910;49.042;9.028;2022-08-11T02:33:49;17.00;90.70
3790;DHT22;1910;49.042;9.028;2022-08-11T02:36:19;17.00;91.20
3790;DHT22;1910;49.042;9.028;2022-08-11T02:39:07;16.90;91.80
3790;DHT22;1910;49.042;9.028;2022-08-11T02:42:03;16.70;92.20
3790;DHT22;1910;49.042;9.028;2022-08-11T02:51:13;16.60;94.30
3790;DHT22;1910;49.042;9.028;2022-08-11T02:59:55;16.90;94.30
3790;DHT22;1910;49.042;9.028;2022-08-11T03:11:16;16.60;94.40
3790;DHT22;1910;49.042;9.028;2022-08-11T03:14:21;16.40;95.10
3790;DHT22;1910;49.042;9.028;2022-08-11T03:18:03;16.50;96.00
3790;DHT22;1910;49.042;9.028;2022-08-11T03:20:35;16.40;95.90
3790;DHT22;1910;49.042;9.028;2022-08-11T03:26:13;16.20;96.90
3790;DHT22;1910;49.042;9.028;2022-08-11T03:28:54;16.20;98.50
3790;DHT22;1910;49.042;9.028;2022-08-11T03:31:48;16.20;98.60
3790;DHT22;1910;49.042;9.028;2022-08-11T03:34:22;16.20;98.40
3790;DHT22;1910;49.042;9.028;2022-08-11T03:39:58;16.20;99.10
3790;DHT22;1910;49.042;9.028;2022-08-11T03:42:49;16.20;98.80
3790;DHT22;1910;49.042;9.028;2022-08-11T03:53:54;16.20;99.80
3790;DHT22;1910;49.042;9.028;2022-08-11T04:16:38;15.70;99.90
3790;DHT22;1910;49.042;9.028;2022-08-11T04:19:54;15.70;99.90
3790;DHT22;1910;49.042;9.028;2022-08-11T04:25:46;15.40;99.90
3790;DHT22;1910;49.042;9.028;2022-08-11T04:36:52;16.40;99.90
3790;DHT22;1910;49.042;9.028;2022-08-11T04:40:01;17.10;99.90
3790;DHT22;1910;49.042;9.028;2022-08-11T05:00:43;21.90;80.50
3790;DHT22;1910;49.042;9.028;2022-08-11T05:12:28;26.20;67.40
3790;DHT22;1910;49.042;9.028;2022-08-11T05:14:57;27.90;57.10
3790;DHT22;1910;49.042;9.028;2022-08-11T05:18:37;27.20;56.70
3790;DHT22;1910;49.042;9.028;2022-08-11T05:21:07;28.40;56.50
3790;DHT22;1910;49.042;9.028;2022-08-11T05:24:25;30.40;52.80
3790;DHT22;1910;49.042;9.028;2022-08-11T05:27:11;31.30;49.40
3790;DHT22;1910;49.042;9.028;2022-08-11T05:30:07;33.00;46.60
3790;DHT22;1910;49.042;9.028;2022-08-11T05:33:05;34.60;43.60
3790;DHT22;1910;49.042;9.028;2022-08-11T05:36:07;35.00;39.20
3790;DHT22;1910;49.042;9.028;2022-08-11T05:38:36;33.50;40.50
3790;DHT22;1910;49.042;9.028;2022-08-11T05:41:24;32.70;41.30
3790;DHT22;1910;49.042;9.028;2022-08-11T05:44:09;32.80;41.00
3790;DHT22;1910;49.042;9.028;2022-08-11T05:46:54;32.60;41.00
3790;DHT22;1910;49.042;9.028;2022-08-11T05:49:39;33.00;40.20
3790;DHT22;1910;49.042;9.028;2022-08-11T05:52:26;33.00;38.00
3790;DHT22;1910;49.042;9.028;2022-08-11T05:55:12;34.40;37.20
3790;DHT22;1910;49.042;9.028;2022-08-11T05:58:01;35.90;35.50
3790;DHT22;1910;49.042;9.028;2022-08-11T06:00:27;36.50;34.20
3790;DHT22;1910;49.042;9.028;2022-08-11T06:02:57;37.10;33.10
3790;DHT22;1910;49.042;9.028;2022-08-11T06:05:32;37.40;32.60
3790;DHT22;1910;49.042;9.028;2022-08-11T06:07:58;37.70;32.00
3790;DHT22;1910;49.042;9.028;2022-08-11T06:10:39;37.80;31.20
3790;DHT22;1910;49.042;9.028;2022-08-11T06:13:06;37.70;31.00
3790;DHT22;1910;49.042;9.028;2022-08-11T06:15:42;38.10;30.70
3790;DHT22;1910;49.042;9.028;2022-08-11T06:18:09;38.50;30.80
3790;DHT22;1910;49.042;9.028;2022-08-11T06:20:45;39.20;30.10
3790;DHT22;1910;49.042;9.028;2022-08-11T06:23:11;40.50;29.50
3790;DHT22;1910;49.042;9.028;2022-08-11T06:25:39;40.70;28.70
3790;DHT22;1910;49.042;9.028;2022-08-11T06:28:06;41.10;28.40
3790;DHT22;1910;49.042;9.028;2022-08-11T06:30:41;42.10;27.20
3790;DHT22;1910;49.042;9.028;2022-08-11T06:33:17;42.50;26.80
3790;DHT22;1910;49.042;9.028;2022-08-11T06:38:46;43.10;26.80
3790;DHT22;1910;49.042;9.028;2022-08-11T06:41:48;43.20;25.90
3790;DHT22;1910;49.042;9.028;2022-08-11T06:44:18;43.20;25.90
3790;DHT22;1910;49.042;9.028;2022-08-11T06:46:49;43.40;25.90
3790;DHT22;1910;49.042;9.028;2022-08-11T06:49:17;43.70;25.70
3790;DHT22;1910;49.042;9.028;2022-08-11T06:52:07;44.00;25.60
3790;DHT22;1910;49.042;9.028;2022-08-11T06:54:35;44.50;25.30
3790;DHT22;1910;49.042;9.028;2022-08-11T06:57:06;44.80;25.10
3790;DHT22;1910;49.042;9.028;2022-08-11T06:59:52;44.00;24.70
3790;DHT22;1910;49.042;9.028;2022-08-11T07:02:44;43.70;25.20
3790;DHT22;1910;49.042;9.028;2022-08-11T07:05:20;43.90;25.10
3790;DHT22;1910;49.042;9.028;2022-08-11T07:14:22;44.50;23.80
3790;DHT22;1910;49.042;9.028;2022-08-11T07:17:12;43.90;24.50
3790;DHT22;1910;49.042;9.028;2022-08-11T07:19:40;43.70;24.80
3790;DHT22;1910;49.042;9.028;2022-08-11T07:22:30;44.00;24.40
3790;DHT22;1910;49.042;9.028;2022-08-11T07:25:16;43.40;25.00
3790;DHT22;1910;49.042;9.028;2022-08-11T07:28:20;43.30;25.10
3790;DHT22;1910;49.042;9.028;2022-08-11T07:31:13;43.70;25.00
3790;DHT22;1910;49.042;9.028;2022-08-11T07:33:44;43.10;25.10
3790;DHT22;1910;49.042;9.028;2022-08-11T07:36:11;43.80;25.00
3790;DHT22;1910;49.042;9.028;2022-08-11T07:38:42;44.80;24.20
3790;DHT22;1910;49.042;9.028;2022-08-11T07:41:17;44.80;24.60
3790;DHT22;1910;49.042;9.028;2022-08-11T07:43:45;45.10;24.10
3790;DHT22;1910;49.042;9.028;2022-08-11T07:46:14;44.50;24.30
3790;DHT22;1910;49.042;9.028;2022-08-11T07:48:59;44.50;24.10
3790;DHT22;1910;49.042;9.028;2022-08-11T07:51:45;42.70;24.60
3790;DHT22;1910;49.042;9.028;2022-08-11T07:54:30;41.50;25.80
3790;DHT22;1910;49.042;9.028;2022-08-11T07:56:56;41.60;25.90
3790;DHT22;1910;49.042;9.028;2022-08-11T07:59:23;41.30;26.10
3790;DHT22;1910;49.042;9.028;2022-08-11T08:02:09;41.70;26.30
3790;DHT22;1910;49.042;9.028;2022-08-11T08:04:56;42.80;25.00
3790;DHT22;1910;49.042;9.028;2022-08-11T08:07:40;42.80;25.40
3790;DHT22;1910;49.042;9.028;2022-08-11T08:10:25;42.30;25.20
3790;DHT22;1910;49.042;9.028;2022-08-11T08:13:09;41.70;25.80
3790;DHT22;1910;49.042;9.028;2022-08-11T08:18:38;40.50;26.30
3790;DHT22;1910;49.042;9.028;2022-08-11T08:21:05;40.30;27.30
3790;DHT22;1910;49.042;9.028;2022-08-11T08:23:48;41.00;27.40
3790;DHT22;1910;49.042;9.028;2022-08-11T08:26:15;40.80;26.80
3790;DHT22;1910;49.042;9.028;2022-08-11T08:29:01;41.70;26.60
3790;DHT22;1910;49.042;9.028;2022-08-11T08:31:47;41.90;26.00
3790;DHT22;1910;49.042;9.028;2022-08-11T08:34:14;41.60;26.30
3790;DHT22;1910;49.042;9.028;2022-08-11T08:36:48;41.50;26.50
3790;DHT22;1910;49.042;9.028;2022-08-11T08:39:18;41.40;26.50
3790;DHT22;1910;49.042;9.028;2022-08-11T08:41:46;43.10;25.20
3790;DHT22;1910;49.042;9.028;2022-08-11T08:44:16;43.90;24.60
3790;DHT22;1910;49.042;9.028;2022-08-11T08:46:43;44.30;23.90
3790;DHT22;1910;49.042;9.028;2022-08-11T08:49:15;42.30;24.80
3790;DHT22;1910;49.042;9.028;2022-08-11T08:51:43;42.10;25.00
3790;DHT22;1910;49.042;9.028;2022-08-11T08:54:16;39.90;26.00
3790;DHT22;1910;49.042;9.028;2022-08-11T08:56:44;39.30;27.10
3790;DHT22;1910;49.042;9.028;2022-08-11T08:59:12;40.10;27.40
3790;DHT22;1910;49.042;9.028;2022-08-11T09:01:47;41.60;26.40
3790;DHT22;1910;49.042;9.028;2022-08-11T09:04:14;41.00;26.00
3790;DHT22;1910;49.042;9.028;2022-08-11T09:06:40;38.80;25.30
3790;DHT22;1910;49.042;9.028;2022-08-11T09:09:09;37.60;26.60
3790;DHT22;1910;49.042;9.028;2022-08-11T09:11:40;36.80;26.90
3790;DHT22;1910;49.042;9.028;2022-08-11T09:16:46;36.40;27.70
3790;DHT22;1910;49.042;9.028;2022-08-11T09:19:14;35.40;28.20
3790;DHT22;1910;49.042;9.028;2022-08-11T09:21:43;35.30;29.10
3790;DHT22;1910;49.042;9.028;2022-08-11T09:24:10;35.40;29.40
3790;DHT22;1910;49.042;9.028;2022-08-11T09:26:55;36.50;28.70
3790;DHT22;1910;49.042;9.028;2022-08-11T09:29:26;36.20;27.40
3790;DHT22;1910;49.042;9.028;2022-08-11T09:31:53;35.20;27.30
3790;DHT22;1910;49.042;9.028;2022-08-11T09:34:20;34.50;27.50
3790;DHT22;1910;49.042;9.028;2022-08-11T09:36:46;34.40;28.50
3790;DHT22;1910;49.042;9.028;2022-08-11T09:39:36;34.30;29.00
3790;DHT22;1910;49.042;9.028;2022-08-11T09:42:21;33.90;28.90
3790;DHT22;1910;49.042;9.028;2022-08-11T09:44:47;34.00;28.20
3790;DHT22;1910;49.042;9.028;2022-08-11T09:47:25;34.00;28.70
3790;DHT22;1910;49.042;9.028;2022-08-11T09:49:55;34.00;27.70
3790;DHT22;1910;49.042;9.028;2022-08-11T09:52:24;33.30;28.20
3790;DHT22;1910;49.042;9.028;2022-08-11T09:54:51;33.20;27.50
3790;DHT22;1910;49.042;9.028;2022-08-11T09:57:21;33.10;27.90
3790;DHT22;1910;49.042;9.028;2022-08-11T10:00:10;32.90;28.30
3790;DHT22;1910;49.042;9.028;2022-08-11T10:02:42;33.00;29.20
3790;DHT22;1910;49.042;9.028;2022-08-11T10:05:09;33.40;29.50
3790;DHT22;1910;49.042;9.028;2022-08-11T10:07:54;33.60;28.70
3790;DHT22;1910;49.042;9.028;2022-08-11T10:10:21;33.50;28.20
3790;DHT22;1910;49.042;9.028;2022-08-11T10:12:57;34.20;28.50
3790;DHT22;1910;49.042;9.028;2022-08-11T10:15:25;34.00;27.60
3790;DHT22;1910;49.042;9.028;2022-08-11T10:20:52;34.20;27.60
3790;DHT22;1910;49.042;9.028;2022-08-11T10:23:20;34.00;28.10
3790;DHT22;1910;49.042;9.028;2022-08-11T10:26:06;33.20;28.60
3790;DHT22;1910;49.042;9.028;2022-08-11T10:28:51;33.10;28.90
3790;DHT22;1910;49.042;9.028;2022-08-11T10:31:19;32.60;28.40
3790;DHT22;1910;49.042;9.028;2022-08-11T10:34:06;31.50;29.30
3790;DHT22;1910;49.042;9.028;2022-08-11T10:36:38;30.30;29.90
3790;DHT22;1910;49.042;9.028;2022-08-11T10:39:09;30.10;30.50
3790;DHT22;1910;49.042;9.028;2022-08-11T10:41:35;29.80;30.20
3790;DHT22;1910;49.042;9.028;2022-08-11T10:44:21;29.40;30.60
3790;DHT22;1910;49.042;9.028;2022-08-11T10:46:47;29.20;31.20
3790;DHT22;1910;49.042;9.028;2022-08-11T10:49:32;29.20;31.90
3790;DHT22;1910;49.042;9.028;2022-08-11T10:51:58;29.20;31.40
3790;DHT22;1910;49.042;9.028;2022-08-11T10:54:44;29.10;30.90
3790;DHT22;1910;49.042;9.028;2022-08-11T10:57:29;29.10;31.50
3790;DHT22;1910;49.042;9.028;2022-08-11T11:00:14;28.90;31.50
3790;DHT22;1910;49.042;9.028;2022-08-11T11:02:41;28.80;32.10
3790;DHT22;1910;49.042;9.028;2022-08-11T11:05:29;29.00;32.60
3790;DHT22;1910;49.042;9.028;2022-08-11T11:08:10;29.30;31.60
3790;DHT22;1910;49.042;9.028;2022-08-11T11:10:58;29.30;31.30
3790;DHT22;1910;49.042;9.028;2022-08-11T11:13:25;29.10;31.80
3790;DHT22;1910;49.042;9.028;2022-08-11T11:16:10;29.10;32.00
3790;DHT22;1910;49.042;9.028;2022-08-11T11:18:55;29.20;31.10
3790;DHT22;1910;49.042;9.028;2022-08-11T11:21:23;29.20;30.60
3790;DHT22;1910;49.042;9.028;2022-08-11T11:24:11;29.30;31.30
3790;DHT22;1910;49.042;9.028;2022-08-11T11:35:25;29.90;31.40
3790;DHT22;1910;49.042;9.028;2022-08-11T11:37:56;29.90;31.30
3790;DHT22;1910;49.042;9.028;2022-08-11T11:40:22;29.80;31.30
3790;DHT22;1910;49.042;9.028;2022-08-11T11:42:55;29.50;31.10
3790;DHT22;1910;49.042;9.028;2022-08-11T11:45:23;29.50;31.20
3790;DHT22;1910;49.042;9.028;2022-08-11T11:47:51;29.70;31.10
3790;DHT22;1910;49.042;9.028;2022-08-11T11:50:26;29.70;30.90
3790;DHT22;1910;49.042;9.028;2022-08-11T11:52:53;29.70;31.10
3790;DHT22;1910;49.042;9.028;2022-08-11T11:55:22;29.70;30.00
3790;DHT22;1910;49.042;9.028;2022-08-11T11:57:49;29.70;30.30
3790;DHT22;1910;49.042;9.028;2022-08-11T12:00:33;29.50;30.50
3790;DHT22;1910;49.042;9.028;2022-08-11T12:03:18;29.70;30.50
3790;DHT22;1910;49.042;9.028;2022-08-11T12:05:46;29.80;30.00
3790;DHT22;1910;49.042;9.028;2022-08-11T12:08:12;29.80;30.00
3790;DHT22;1910;49.042;9.028;2022-08-11T12:13:09;29.90;30.00
3790;DHT22;1910;49.042;9.028;2022-08-11T12:15:54;31.00;30.70
3790;DHT22;1910;49.042;9.028;2022-08-11T12:18:20;30.40;29.90
3790;DHT22;1910;49.042;9.028;2022-08-11T12:20:46;30.50;29.90
3790;DHT22;1910;49.042;9.028;2022-08-11T12:23:12;30.60;29.00
3790;DHT22;1910;49.042;9.028;2022-08-11T12:25:58;30.40;28.80
3790;DHT22;1910;49.042;9.028;2022-08-11T12:28:43;30.10;29.10
3790;DHT22;1910;49.042;9.028;2022-08-11T12:31:09;30.00;29.20
3790;DHT22;1910;49.042;9.028;2022-08-11T12:33:36;30.10;29.60
3790;DHT22;1910;49.042;9.028;2022-08-11T12:36:02;30.20;29.30
3790;DHT22;1910;49.042;9.028;2022-08-11T12:38:30;30.20;29.20
3790;DHT22;1910;49.042;9.028;2022-08-11T12:40:57;32.00;30.30
3790;DHT22;1910;49.042;9.028;2022-08-11T12:43:44;30.20;29.00
3790;DHT22;1910;49.042;9.028;2022-08-11T12:46:36;30.40;29.40
3790;DHT22;1910;49.042;9.028;2022-08-11T12:49:09;30.20;29.10
3790;DHT22;1910;49.042;9.028;2022-08-11T12:51:56;30.30;29.00
3790;DHT22;1910;49.042;9.028;2022-08-11T12:57:13;30.20;29.20
3790;DHT22;1910;49.042;9.028;2022-08-11T12:59:59;30.40;29.20
3790;DHT22;1910;49.042;9.028;2022-08-11T13:02:46;30.40;28.50
3790;DHT22;1910;49.042;9.028;2022-08-11T13:05:31;30.40;29.00
3790;DHT22;1910;49.042;9.028;2022-08-11T13:07:59;30.60;28.20
3790;DHT22;1910;49.042;9.028;2022-08-11T13:10:26;30.70;28.30
3790;DHT22;1910;49.042;9.028;2022-08-11T13:13:22;30.80;27.80
3790;DHT22;1910;49.042;9.028;2022-08-11T13:15:49;30.80;27.90
3790;DHT22;1910;49.042;9.028;2022-08-11T13:18:17;30.70;28.00
3790;DHT22;1910;49.042;9.028;2022-08-11T13:20:50;30.50;28.10
3790;DHT22;1910;49.042;9.028;2022-08-11T13:23:17;30.50;28.60
3790;DHT22;1910;49.042;9.028;2022-08-11T13:25:44;30.30;28.50
3790;DHT22;1910;49.042;9.028;2022-08-11T13:28:10;30.20;28.60
3790;DHT22;1910;49.042;9.028;2022-08-11T13:30:37;30.20;28.40
3790;DHT22;1910;49.042;9.028;2022-08-11T13:33:21;30.30;28.30
3790;DHT22;1910;49.042;9.028;2022-08-11T13:35:50;30.40;28.70
3790;DHT22;1910;49.042;9.028;2022-08-11T13:38:17;30.70;28.00
3790;DHT22;1910;49.042;9.028;2022-08-11T13:40:44;31.10;28.50
3790;DHT22;1910;49.042;9.028;2022-08-11T13:43:12;30.60;28.60
3790;DHT22;1910;49.042;9.028;2022-08-11T13:45:38;30.60;28.40
3790;DHT22;1910;49.042;9.028;2022-08-11T13:48:07;30.60;28.00
3790;DHT22;1910;49.042;9.028;2022-08-11T13:50:34;30.70;28.40
3790;DHT22;1910;49.042;9.028;2022-08-11T13:53:24;30.80;28.00
3790;DHT22;1910;49.042;9.028;2022-08-11T13:55:50;30.90;27.70
3790;DHT22;1910;49.042;9.028;2022-08-11T13:58:16;30.80;27.60
3790;DHT22;1910;49.042;9.028;2022-08-11T14:00:50;30.60;27.50
3790;DHT22;1910;49.042;9.028;2022-08-11T14:03:24;30.60;27.80
3790;DHT22;1910;49.042;9.028;2022-08-11T14:05:52;30.70;27.90
3790;DHT22;1910;49.042;9.028;2022-08-11T14:08:25;30.70;27.60
3790;DHT22;1910;49.042;9.028;2022-08-11T14:10:55;30.60;27.80
3790;DHT22;1910;49.042;9.028;2022-08-11T14:13:43;30.90;27.90
3790;DHT22;1910;49.042;9.028;2022-08-11T14:16:19;30.90;27.50
3790;DHT22;1910;49.042;9.028;2022-08-11T14:18:47;30.90;28.00
3790;DHT22;1910;49.042;9.028;2022-08-11T14:21:15;31.10;28.00
3790;DHT22;1910;49.042;9.028;2022-08-11T14:24:02;30.80;27.90
3790;DHT22;1910;49.042;9.028;2022-08-11T14:26:30;31.00;28.10
3790;DHT22;1910;49.042;9.028;2022-08-11T14:29:11;31.00;28.10
3790;DHT22;1910;49.042;9.028;2022-08-11T14:31:42;30.70;27.50
3790;DHT22;1910;49.042;9.028;2022-08-11T14:34:09;30.70;27.90
3790;DHT22;1910;49.042;9.028;2022-08-11T14:36:43;31.00;28.50
3790;DHT22;1910;49.042;9.028;2022-08-11T14:39:15;30.90;27.70
3790;DHT22;1910;49.042;9.028;2022-08-11T14:41:47;31.00;28.00
3790;DHT22;1910;49.042;9.028;2022-08-11T14:44:34;31.00;28.40
3790;DHT22;1910;49.042;9.028;2022-08-11T14:47:20;31.20;27.60
3790;DHT22;1910;49.042;9.028;2022-08-11T14:49:48;31.30;27.90
3790;DHT22;1910;49.042;9.028;2022-08-11T14:52:17;30.60;27.60
3790;DHT22;1910;49.042;9.028;2022-08-11T14:54:47;30.60;27.10
3790;DHT22;1910;49.042;9.028;2022-08-11T14:57:35;32.20;28.20
3790;DHT22;1910;49.042;9.028;2022-08-11T15:00:02;30.80;27.40
3790;DHT22;1910;49.042;9.028;2022-08-11T15:02:29;30.60;27.20
3790;DHT22;1910;49.042;9.028;2022-08-11T15:05:14;30.70;27.30
3790;DHT22;1910;49.042;9.028;2022-08-11T15:07:40;30.90;27.30
3790;DHT22;1910;49.042;9.028;2022-08-11T15:10:08;30.60;26.70
3790;DHT22;1910;49.042;9.028;2022-08-11T15:12:36;30.50;27.20
3790;DHT22;1910;49.042;9.028;2022-08-11T15:15:05;30.50;27.40
3790;DHT22;1910;49.042;9.028;2022-08-11T15:17:52;30.50;26.90
3790;DHT22;1910;49.042;9.028;2022-08-11T15:20:20;30.60;26.80
3790;DHT22;1910;49.042;9.028;2022-08-11T15:23:05;30.60;26.90
3790;DHT22;1910;49.042;9.028;2022-08-11T15:26:03;30.60;27.40
3790;DHT22;1910;49.042;9.028;2022-08-11T15:28:33;30.40;26.90
3790;DHT22;1910;49.042;9.028;2022-08-11T15:31:22;30.20;27.30
3790;DHT22;1910;49.042;9.028;2022-08-11T15:33:54;30.30;27.60
3790;DHT22;1910;49.042;9.028;2022-08-11T15:36:41;30.40;27.10
3790;DHT22;1910;49.042;9.028;2022-08-11T15:39:35;30.20;27.60
3790;DHT22;1910;49.042;9.028;2022-08-11T15:42:08;30.30;28.10
3790;DHT22;1910;49.042;9.028;2022-08-11T15:44:59;30.30;27.80
3790;DHT22;1910;49.042;9.028;2022-08-11T15:47:53;30.40;28.10
3790;DHT22;1910;49.042;9.028;2022-08-11T15:50:27;30.40;27.70
3790;DHT22;1910;49.042;9.028;2022-08-11T15:53:17;30.30;28.00
3790;DHT22;1910;49.042;9.028;2022-08-11T15:55:44;30.30;28.60
3790;DHT22;1910;49.042;9.028;2022-08-11T15:58:12;30.40;28.50
3790;DHT22;1910;49.042;9.028;2022-08-11T16:00:57;30.50;28.50
3790;DHT22;1910;49.042;9.028;2022-08-11T16:03:53;30.30;28.00
3790;DHT22;1910;49.042;9.028;2022-08-11T16:06:44;30.10;27.90
3790;DHT22;1910;49.042;9.028;2022-08-11T16:09:13;30.10;28.30
3790;DHT22;1910;49.042;9.028;2022-08-11T16:11:40;30.10;28.60
3790;DHT22;1910;49.042;9.028;2022-08-11T16:14:07;29.90;28.70
3790;DHT22;1910;49.042;9.028;2022-08-11T16:16:53;29.80;28.80
3790;DHT22;1910;49.042;9.028;2022-08-11T16:19:22;29.80;29.20
3790;DHT22;1910;49.042;9.028;2022-08-11T16:21:51;29.90;28.80
3790;DHT22;1910;49.042;9.028;2022-08-11T16:24:18;30.00;28.50
3790;DHT22;1910;49.042;9.028;2022-08-11T16:26:45;29.90;28.80
3790;DHT22;1910;49.042;9.028;2022-08-11T16:29:13;30.30;29.90
3790;DHT22;1910;49.042;9.028;2022-08-11T16:31:40;29.90;30.00
3790;DHT22;1910;49.042;9.028;2022-08-11T16:34:06;29.90;29.90
3790;DHT22;1910;49.042;9.028;2022-08-11T16:36:57;29.80;30.10
3790;DHT22;1910;49.042;9.028;2022-08-11T16:39:42;29.80;30.20
3790;DHT22;1910;49.042;9.028;2022-08-11T16:42:10;29.90;30.10
3790;DHT22;1910;49.042;9.028;2022-08-11T16:44:56;29.80;30.00
3790;DHT22;1910;49.042;9.028;2022-08-11T16:47:43;29.70;30.30
3790;DHT22;1910;49.042;9.028;2022-08-11T16:50:10;29.70;30.00
3790;DHT22;1910;49.042;9.028;2022-08-11T16:52:36;29.50;30.20
3790;DHT22;1910;49.042;9.028;2022-08-11T16:55:02;29.50;30.30
3790;DHT22;1910;49.042;9.028;2022-08-11T16:57:28;29.40;30.30
3790;DHT22;1910;49.042;9.028;2022-08-11T17:00:16;29.40;30.40
3790;DHT22;1910;49.042;9.028;2022-08-11T17:02:52;29.40;30.90
3790;DHT22;1910;49.042;9.028;2022-08-11T17:05:43;29.30;30.90
3790;DHT22;1910;49.042;9.028;2022-08-11T17:08:46;29.30;31.10
3790;DHT22;1910;49.042;9.028;2022-08-11T17:11:38;29.30;30.80
3790;DHT22;1910;49.042;9.028;2022-08-11T17:14:27;29.10;31.10
3790;DHT22;1910;49.042;9.028;2022-08-11T17:16:58;29.20;30.80
3790;DHT22;1910;49.042;9.028;2022-08-11T17:19:27;29.20;30.90
3790;DHT22;1910;49.042;9.028;2022-08-11T17:21:56;29.10;30.80
3790;DHT22;1910;49.042;9.028;2022-08-11T17:24:44;28.90;30.50
3790;DHT22;1910;49.042;9.028;2022-08-11T17:27:12;28.90;31.10
3790;DHT22;1910;49.042;9.028;2022-08-11T17:29:47;28.80;31.10
3790;DHT22;1910;49.042;9.028;2022-08-11T17:32:36;28.60;31.00
3790;DHT22;1910;49.042;9.028;2022-08-11T17:35:27;28.50;30.40
3790;DHT22;1910;49.042;9.028;2022-08-11T17:38:10;28.50;30.90
3790;DHT22;1910;49.042;9.028;2022-08-11T17:40:39;28.40;31.00
3790;DHT22;1910;49.042;9.028;2022-08-11T17:43:25;28.40;31.30
3790;DHT22;1910;49.042;9.028;2022-08-11T17:46:10;28.10;31.00
3790;DHT22;1910;49.042;9.028;2022-08-11T17:48:55;28.10;31.60
3790;DHT22;1910;49.042;9.028;2022-08-11T17:51:22;28.00;31.80
3790;DHT22;1910;49.042;9.028;2022-08-11T17:54:08;27.90;32.00
3790;DHT22;1910;49.042;9.028;2022-08-11T17:56:53;27.90;32.20
3790;DHT22;1910;49.042;9.028;2022-08-11T17:59:38;27.80;32.40
3790;DHT22;1910;49.042;9.028;2022-08-11T18:02:28;27.60;32.50
3790;DHT22;1910;49.042;9.028;2022-08-11T18:05:14;27.50;32.60
3790;DHT22;1910;49.042;9.028;2022-08-11T18:07:44;27.40;32.80
3790;DHT22;1910;49.042;9.028;2022-08-11T18:10:31;27.30;32.80
3790;DHT22;1910;49.042;9.028;2022-08-11T18:13:30;27.10;33.10
3790;DHT22;1910;49.042;9.028;2022-08-11T18:16:14;27.00;33.00
3790;DHT22;1910;49.042;9.028;2022-08-11T18:18:59;27.00;33.00
3790;DHT22;1910;49.042;9.028;2022-08-11T18:21:45;26.90;33.00
3790;DHT22;1910;49.042;9.028;2022-08-11T18:24:38;26.90;33.10
3790;DHT22;1910;49.042;9.028;2022-08-11T18:27:27;26.70;33.10
3790;DHT22;1910;49.042;9.028;2022-08-11T18:30:13;26.60;33.10
3790;DHT22;1910;49.042;9.028;2022-08-11T18:33:00;26.40;33.20
3790;DHT22;1910;49.042;9.028;2022-08-11T18:35:49;26.40;33.30
3790;DHT22;1910;49.042;9.028;2022-08-11T18:38:38;26.10;33.10
3790;DHT22;1910;49.042;9.028;2022-08-11T18:41:22;26.10;33.60
3790;DHT22;1910;49.042;9.028;2022-08-11T18:44:09;25.90;33.80
3790;DHT22;1910;49.042;9.028;2022-08-11T18:46:55;26.00;33.80
3790;DHT22;1910;49.042;9.028;2022-08-11T18:49:43;25.50;36.50
3790;DHT22;1910;49.042;9.028;2022-08-11T18:52:30;25.50;37.00
3790;DHT22;1910;49.042;9.028;2022-08-11T18:55:18;24.90;38.10
3790;DHT22;1910;49.042;9.028;2022-08-11T18:58:06;24.90;38.80
3790;DHT22;1910;49.042;9.028;2022-08-11T19:00:55;24.70;38.60
3790;DHT22;1910;49.042;9.028;2022-08-11T19:03:42;24.50;39.60
3790;DHT22;1910;49.042;9.028;2022-08-11T19:06:28;24.30;38.90
3790;DHT22;1910;49.042;9.028;2022-08-11T19:09:16;24.20;40.40
3790;DHT22;1910;49.042;9.028;2022-08-11T19:12:02;23.70;40.20
3790;DHT22;1910;49.042;9.028;2022-08-11T19:14:48;23.50;40.60
3790;DHT22;1910;49.042;9.028;2022-08-11T19:17:40;23.50;41.10
3790;DHT22;1910;49.042;9.028;2022-08-11T19:20:27;23.30;41.30
3790;DHT22;1910;49.042;9.028;2022-08-11T19:23:16;23.10;42.00
3790;DHT22;1910;49.042;9.028;2022-08-11T19:26:02;23.00;42.00
3790;DHT22;1910;49.042;9.028;2022-08-11T19:28:48;22.80;42.20
3790;DHT22;1910;49.042;9.028;2022-08-11T19:31:34;22.50;42.90
3790;DHT22;1910;49.042;9.028;2022-08-11T19:34:23;22.40;43.40
3790;DHT22;1910;49.042;9.028;2022-08-11T19:37:09;22.30;43.50
3790;DHT22;1910;49.042;9.028;2022-08-11T19:40:01;22.20;43.90
3790;DHT22;1910;49.042;9.028;2022-08-11T19:42:47;22.00;43.80
3790;DHT22;1910;49.042;9.028;2022-08-11T19:45:32;21.90;44.10
3790;DHT22;1910;49.042;9.028;2022-08-11T19:48:21;21.80;44.50
3790;DHT22;1910;49.042;9.028;2022-08-11T19:51:08;21.70;44.90
3790;DHT22;1910;49.042;9.028;2022-08-11T19:53:53;21.60;44.80
3790;DHT22;1910;49.042;9.028;2022-08-11T19:56:38;21.50;45.10
3790;DHT22;1910;49.042;9.028;2022-08-11T19:59:23;21.60;45.00
3790;DHT22;1910;49.042;9.028;2022-08-11T20:02:08;21.70;44.00
3790;DHT22;1910;49.042;9.028;2022-08-11T20:04:52;21.80;41.90
3790;DHT22;1910;49.042;9.028;2022-08-11T20:07:36;21.90;42.70
3790;DHT22;1910;49.042;9.028;2022-08-11T20:10:22;22.20;41.50
3790;DHT22;1910;49.042;9.028;2022-08-11T20:13:08;22.20;42.00
3790;DHT22;1910;49.042;9.028;2022-08-11T20:15:54;22.30;41.70
3790;DHT22;1910;49.042;9.028;2022-08-11T20:18:41;22.40;41.70
3790;DHT22;1910;49.042;9.028;2022-08-11T20:21:26;22.40;41.50
3790;DHT22;1910;49.042;9.028;2022-08-11T20:24:12;22.50;41.40